To NAV CANADA Home Page Login to a new session Search on AWWS site Disclaimer Vers la page française équivalente Tips FAQ What's new on the site To the Forecasts and Observations / NOTAM section To "File a Flight Plan" website Publications and other links Update of the User's profile FIC Telephone Numbers My Weather Data Folder Route Weather Data Regional Weather Data Local Weather Data To the Forecasts and Observations / NOTAM section
Request Generated 04/25/2019 at 09:06:34 UTC . Weather information available at that time is displayed.

METAR/TAF

HAY RIVER/MERLYN CARTER AIRPORT/NT    

METAR CYHY 250900Z 00000KT 15SM OVC023 M02/M04 A3010 RMK SC8 SLP205=
METAR CYHY 250800Z VRB02KT 15SM OVC026 M02/M04 A3008 RMK SC8 SLP198=
METAR CYHY 250700Z 00000KT 15SM OVC029 M02/M03 A3007 RMK SC8 SLP193=

TAF CYHY 250538Z 2506/2518 VRB03KT P6SM SCT100 BKN230 TEMPO 2506/2510
BKN020
FM251000 31005KT P6SM BKN030 TEMPO 2510/2518 5SM -SN BKN020
BECMG 2512/2514 31010KT
RMK NXT FCST BY 251200Z=
Your time UTC time
Weather data provided by Environment Canada and NAV CANADA